createdAt,value
2022-10-12T00:01:00.102Z,74.10
2022-10-12T00:03:27.349Z,74.10
2022-10-12T00:06:16.912Z,74.10
2022-10-12T00:09:09.219Z,74.30
2022-10-12T00:11:36.176Z,74.00
2022-10-12T00:14:03.056Z,73.90
2022-10-12T00:16:31.563Z,73.90
2022-10-12T00:18:59.428Z,73.90
2022-10-12T00:21:27.961Z,73.80
2022-10-12T00:24:01.047Z,73.80
2022-10-12T00:26:29.138Z,73.80
2022-10-12T00:29:00.885Z,73.70
2022-10-12T00:31:29.940Z,73.80
2022-10-12T00:34:01.735Z,73.70
2022-10-12T00:36:33.952Z,73.70
2022-10-12T00:39:01.786Z,73.70
2022-10-12T00:41:33.473Z,73.70
2022-10-12T00:44:00.993Z,73.70
2022-10-12T00:46:42.557Z,73.80
2022-10-12T00:49:15.982Z,74.10
2022-10-12T00:51:48.978Z,73.90
2022-10-12T00:54:26.464Z,73.90
2022-10-12T00:56:55.345Z,74.00
2022-10-12T00:59:30.571Z,74.00
2022-10-12T01:01:57.675Z,74.00
2022-10-12T01:04:25.508Z,73.90
2022-10-12T01:06:55.828Z,73.90
2022-10-12T01:09:23.276Z,74.00
2022-10-12T01:11:50.467Z,73.90
2022-10-12T01:14:17.598Z,74.00
2022-10-12T01:17:17.214Z,74.20
2022-10-12T01:20:25.965Z,74.30
2022-10-12T01:23:19.689Z,74.60
2022-10-12T01:26:10.673Z,74.20
2022-10-12T01:29:30.682Z,74.20
2022-10-12T01:32:06.338Z,74.50
2022-10-12T01:35:02.384Z,74.20
2022-10-12T01:37:54.450Z,74.50
2022-10-12T01:40:33.145Z,74.40
2022-10-12T01:43:00.407Z,74.30
2022-10-12T01:45:27.436Z,74.20
2022-10-12T01:47:55.469Z,74.20
2022-10-12T01:50:32.163Z,74.30
2022-10-12T01:53:16.671Z,74.30
2022-10-12T01:56:09.324Z,74.40
2022-10-12T01:59:19.568Z,74.40
2022-10-12T02:02:14.459Z,74.50
2022-10-12T02:04:49.295Z,74.40
2022-10-12T02:07:41.939Z,74.20
2022-10-12T02:10:18.412Z,74.30
2022-10-12T02:12:48.085Z,74.30
2022-10-12T02:15:17.575Z,74.40
2022-10-12T02:17:48.301Z,74.40
2022-10-12T02:20:18.630Z,74.50
2022-10-12T02:22:49.514Z,74.50
2022-10-12T02:25:22.949Z,74.60
2022-10-12T02:28:04.374Z,74.60
2022-10-12T02:30:45.531Z,74.80
2022-10-12T02:33:33.345Z,74.70
2022-10-12T02:36:13.998Z,74.90
2022-10-12T02:38:55.668Z,74.80
2022-10-12T02:41:30.640Z,74.80
2022-10-12T02:44:01.996Z,74.80
2022-10-12T02:46:30.127Z,74.90
2022-10-12T02:48:59.409Z,75.00
2022-10-12T02:51:29.396Z,75.20
2022-10-12T02:53:57.187Z,75.90
2022-10-12T02:56:24.626Z,75.20
2022-10-12T02:58:51.685Z,75.20
2022-10-12T03:01:18.799Z,75.40
2022-10-12T03:03:45.979Z,75.20
2022-10-12T03:06:13.370Z,75.20
2022-10-12T03:08:40.267Z,75.20
2022-10-12T03:11:12.443Z,75.20
2022-10-12T03:13:39.339Z,75.20
2022-10-12T03:16:10.198Z,75.20
2022-10-12T03:18:38.238Z,75.30
2022-10-12T03:21:06.378Z,75.30
2022-10-12T03:23:33.428Z,75.30
2022-10-12T03:26:00.292Z,75.30
2022-10-12T03:28:27.549Z,75.30
2022-10-12T03:30:54.633Z,75.20
2022-10-12T03:33:25.181Z,75.30
2022-10-12T03:35:52.061Z,75.40
2022-10-12T03:38:20.013Z,75.40
2022-10-12T03:40:47.411Z,75.40
2022-10-12T03:43:14.533Z,75.40
2022-10-12T03:45:41.609Z,75.50
2022-10-12T03:48:08.848Z,75.50
2022-10-12T03:50:36.443Z,75.70
2022-10-12T03:53:05.956Z,75.60
2022-10-12T03:55:33.579Z,75.60
2022-10-12T03:58:00.609Z,75.80
2022-10-12T04:00:28.414Z,75.70
2022-10-12T04:02:56.247Z,75.70
2022-10-12T04:05:23.810Z,75.80
2022-10-12T04:07:51.322Z,75.60
2022-10-12T04:10:18.192Z,75.70
2022-10-12T04:12:45.956Z,75.70
2022-10-12T04:15:13.752Z,75.70
2022-10-12T04:17:41.245Z,75.60
2022-10-12T04:20:11.427Z,75.60
2022-10-12T04:22:39.196Z,75.60
2022-10-12T04:25:06.836Z,75.60
2022-10-12T04:27:34.149Z,75.70
2022-10-12T04:30:01.209Z,75.70
2022-10-12T04:32:28.036Z,75.70
2022-10-12T04:34:54.967Z,75.60
2022-10-12T04:37:21.812Z,75.70
2022-10-12T04:39:48.778Z,75.80
2022-10-12T04:42:15.667Z,75.80
2022-10-12T04:44:42.877Z,76.00
2022-10-12T04:47:09.753Z,76.10
2022-10-12T04:49:36.889Z,76.10
2022-10-12T04:52:03.803Z,76.20
2022-10-12T04:54:32.943Z,76.20
2022-10-12T04:56:59.780Z,76.20
2022-10-12T04:59:26.744Z,76.30
2022-10-12T05:01:54.583Z,76.30
2022-10-12T05:04:21.739Z,76.30
2022-10-12T05:06:48.943Z,76.30
2022-10-12T05:09:17.258Z,76.30
2022-10-12T05:11:44.586Z,76.40
2022-10-12T05:14:11.551Z,76.40
2022-10-12T05:16:38.560Z,76.40
2022-10-12T05:19:05.856Z,76.40
2022-10-12T05:21:33.907Z,76.50
2022-10-12T05:24:00.729Z,76.50
2022-10-12T05:26:28.796Z,76.60
2022-10-12T05:28:55.731Z,76.70
2022-10-12T05:31:22.540Z,76.70
2022-10-12T05:33:50.192Z,76.80
2022-10-12T05:36:17.042Z,76.70
2022-10-12T05:38:43.975Z,76.80
2022-10-12T05:41:10.915Z,76.80
2022-10-12T05:43:37.982Z,76.90
2022-10-12T05:46:11.021Z,77.00
2022-10-12T05:48:40.739Z,77.10
2022-10-12T05:51:07.721Z,77.20
2022-10-12T05:53:34.516Z,77.30
2022-10-12T05:56:02.126Z,77.40
2022-10-12T05:58:31.231Z,77.60
2022-10-12T06:01:12.904Z,77.60
2022-10-12T06:03:40.955Z,77.80
2022-10-12T06:06:08.176Z,77.80
2022-10-12T06:08:36.288Z,78.00
2022-10-12T06:11:03.574Z,78.10
2022-10-12T06:13:30.988Z,78.30
2022-10-12T06:15:58.059Z,78.50
2022-10-12T06:18:25.281Z,78.60
2022-10-12T06:21:14.866Z,78.90
2022-10-12T06:23:41.588Z,79.40
2022-10-12T06:26:08.403Z,79.90
2022-10-12T06:28:35.636Z,80.30
2022-10-12T06:31:02.656Z,80.60
2022-10-12T06:36:21.307Z,80.90
2022-10-12T06:38:48.177Z,80.90
2022-10-12T06:41:16.155Z,80.80
2022-10-12T06:43:43.140Z,80.70
2022-10-12T06:46:10.059Z,80.50
2022-10-12T06:48:40.242Z,80.20
2022-10-12T06:51:07.670Z,80.10
2022-10-12T06:53:35.039Z,79.90
2022-10-12T06:56:12.444Z,79.40
2022-10-12T06:58:40.101Z,79.00
2022-10-12T07:01:08.907Z,78.90
2022-10-12T07:03:36.301Z,78.40
2022-10-12T07:06:28.105Z,77.90
2022-10-12T07:08:55.538Z,77.50
2022-10-12T07:11:22.931Z,76.70
2022-10-12T07:13:50.129Z,75.70
2022-10-12T07:16:16.923Z,75.00
2022-10-12T07:18:43.921Z,74.20
2022-10-12T07:21:10.928Z,73.30
2022-10-12T07:23:41.320Z,72.10
2022-10-12T07:26:12.074Z,70.90
2022-10-12T07:28:39.125Z,69.80
2022-10-12T07:31:08.120Z,68.50
2022-10-12T07:33:38.623Z,67.00
2022-10-12T07:36:15.851Z,65.90
2022-10-12T07:38:45.310Z,64.50
2022-10-12T07:41:12.904Z,63.00
2022-10-12T07:43:40.212Z,62.20
2022-10-12T07:46:07.880Z,61.10
2022-10-12T07:48:38.235Z,60.40
2022-10-12T07:51:30.229Z,58.40
2022-10-12T07:53:57.484Z,55.90
2022-10-12T07:56:24.261Z,55.90
2022-10-12T07:58:54.047Z,55.50
2022-10-12T08:01:25.110Z,55.00
2022-10-12T08:03:57.464Z,54.50
2022-10-12T08:06:30.973Z,54.00
2022-10-12T08:08:59.861Z,52.80
2022-10-12T08:11:27.527Z,52.10
2022-10-12T08:13:55.017Z,51.40
2022-10-12T08:16:22.609Z,50.60
2022-10-12T08:18:49.615Z,49.70
2022-10-12T08:21:18.092Z,48.70
2022-10-12T08:23:46.243Z,47.30
2022-10-12T08:26:15.788Z,46.60
2022-10-12T08:28:43.145Z,45.60
2022-10-12T08:31:16.799Z,44.90
2022-10-12T08:33:44.055Z,43.30
2022-10-12T08:36:12.299Z,43.10
2022-10-12T08:38:39.606Z,41.50
2022-10-12T08:41:59.145Z,40.80
2022-10-12T08:44:37.973Z,38.50
2022-10-12T08:47:37.921Z,39.00
2022-10-12T08:50:14.894Z,36.50
2022-10-12T08:52:51.304Z,35.80
2022-10-12T08:55:24.325Z,35.60
2022-10-12T08:57:51.201Z,35.10
2022-10-12T09:00:18.735Z,35.10
2022-10-12T09:03:10.458Z,34.60
2022-10-12T09:05:41.688Z,33.10
2022-10-12T09:08:28.499Z,33.70
2022-10-12T09:11:07.733Z,32.10
2022-10-12T09:13:49.216Z,34.00
2022-10-12T09:16:29.637Z,32.20
2022-10-12T09:19:03.724Z,30.00
2022-10-12T09:21:32.448Z,29.60
2022-10-12T09:24:00.757Z,29.80
2022-10-12T09:26:36.930Z,28.90
2022-10-12T09:29:19.426Z,28.00
2022-10-12T09:32:20.328Z,28.20
2022-10-12T09:34:49.457Z,27.90
2022-10-12T09:37:23.748Z,27.50
2022-10-12T09:39:51.215Z,27.10
2022-10-12T09:42:18.479Z,27.50
2022-10-12T09:44:49.524Z,27.10
2022-10-12T09:47:26.817Z,26.60
2022-10-12T09:50:04.077Z,26.20
2022-10-12T09:52:42.570Z,26.30
2022-10-12T09:55:15.953Z,25.60
2022-10-12T09:57:53.255Z,25.50
2022-10-12T10:00:24.742Z,26.20
2022-10-12T10:02:52.622Z,25.50
2022-10-12T10:05:33.119Z,25.10
2022-10-12T10:08:23.283Z,24.30
2022-10-12T10:10:55.542Z,24.60
2022-10-12T10:13:27.861Z,25.30
2022-10-12T10:16:09.417Z,24.40
2022-10-12T10:18:38.661Z,22.60
2022-10-12T10:21:09.601Z,22.60
2022-10-12T10:23:59.257Z,21.40
2022-10-12T10:26:30.050Z,21.00
2022-10-12T10:29:27.815Z,21.60
2022-10-12T10:32:14.441Z,21.20
2022-10-12T10:34:42.207Z,20.90
2022-10-12T10:37:24.530Z,21.10
2022-10-12T10:39:58.363Z,20.90
2022-10-12T10:42:33.495Z,21.00
2022-10-12T10:45:07.219Z,20.60
2022-10-12T10:47:46.420Z,20.50
2022-10-12T10:50:38.811Z,20.60
2022-10-12T10:53:18.550Z,20.50
2022-10-12T10:56:27.488Z,20.70
2022-10-12T10:58:57.239Z,20.10
2022-10-12T11:01:36.332Z,20.90
2022-10-12T11:04:09.380Z,20.80
2022-10-12T11:06:46.072Z,20.30
2022-10-12T11:09:20.142Z,20.10
2022-10-12T11:12:02.708Z,20.20
2022-10-12T11:14:39.393Z,20.00
2022-10-12T11:17:18.776Z,19.90
2022-10-12T11:20:29.129Z,19.70
2022-10-12T11:23:09.587Z,19.00
2022-10-12T11:25:48.208Z,19.60
2022-10-12T11:28:16.662Z,19.90
2022-10-12T11:30:51.975Z,19.60
2022-10-12T11:33:27.603Z,19.50
2022-10-12T11:35:57.469Z,19.40
2022-10-12T11:38:48.479Z,19.70
2022-10-12T11:44:30.836Z,19.60
2022-10-12T11:47:28.151Z,19.50
2022-10-12T11:50:14.757Z,19.20
2022-10-12T11:52:49.182Z,19.20
2022-10-12T11:55:46.999Z,19.00
2022-10-12T11:58:42.190Z,19.30
2022-10-12T12:01:37.887Z,18.90
2022-10-12T12:04:41.573Z,18.90
2022-10-12T12:07:42.430Z,18.90
2022-10-12T12:10:27.888Z,18.70
2022-10-12T12:13:15.297Z,19.20
2022-10-12T12:15:52.270Z,19.40
2022-10-12T12:18:29.156Z,19.30
2022-10-12T12:21:08.343Z,18.80
2022-10-12T12:23:52.340Z,18.70
2022-10-12T12:26:22.465Z,18.60
2022-10-12T12:29:11.309Z,18.70
2022-10-12T12:31:38.458Z,18.70
2022-10-12T12:34:13.890Z,18.90
2022-10-12T12:36:46.893Z,18.60
2022-10-12T12:39:33.231Z,18.90
2022-10-12T12:42:06.973Z,18.60
2022-10-12T12:44:43.532Z,19.40
2022-10-12T12:47:45.415Z,18.80
2022-10-12T12:50:39.688Z,18.70
2022-10-12T12:53:18.712Z,18.80
2022-10-12T12:56:19.908Z,19.00
2022-10-12T12:58:57.993Z,19.20
2022-10-12T13:01:46.825Z,19.40
2022-10-12T13:04:41.226Z,19.60
2022-10-12T13:07:29.328Z,19.80
2022-10-12T13:10:39.520Z,20.10
2022-10-12T13:13:24.374Z,20.30
2022-10-12T13:19:36.693Z,20.30
2022-10-12T13:22:23.292Z,20.10
2022-10-12T13:24:54.585Z,20.20
2022-10-12T13:27:33.109Z,20.30
2022-10-12T13:30:26.956Z,20.70
2022-10-12T13:33:21.473Z,21.00
2022-10-12T13:35:55.974Z,21.00
2022-10-12T13:38:26.975Z,21.10
2022-10-12T13:41:20.520Z,21.00
2022-10-12T13:44:04.293Z,21.00
2022-10-12T13:46:48.299Z,21.00
2022-10-12T13:49:26.162Z,21.10
2022-10-12T13:52:32.373Z,21.00
2022-10-12T13:55:00.887Z,21.10
2022-10-12T13:57:41.478Z,21.00
2022-10-12T14:00:16.263Z,20.60
2022-10-12T14:03:00.391Z,20.50
2022-10-12T14:05:30.844Z,20.40
2022-10-12T14:08:06.952Z,20.40
2022-10-12T14:10:37.898Z,20.50
2022-10-12T14:13:07.289Z,20.70
2022-10-12T14:15:37.454Z,21.10
2022-10-12T14:18:31.565Z,21.50
2022-10-12T14:21:36.604Z,21.70
2022-10-12T14:24:10.557Z,22.30
2022-10-12T14:26:43.161Z,22.60
2022-10-12T14:29:39.340Z,23.10
2022-10-12T14:32:12.844Z,23.70
2022-10-12T14:34:46.399Z,24.00
2022-10-12T14:37:28.707Z,24.50
2022-10-12T14:40:00.411Z,24.80
2022-10-12T14:42:32.201Z,25.30
2022-10-12T14:44:59.926Z,25.70
2022-10-12T14:47:41.857Z,26.10
2022-10-12T14:50:17.185Z,26.80
2022-10-12T14:52:52.934Z,26.90
2022-10-12T14:55:30.660Z,27.10
2022-10-12T14:57:57.673Z,27.40
2022-10-12T15:00:31.865Z,27.80
2022-10-12T15:03:04.859Z,28.20
2022-10-12T15:05:33.426Z,28.60
2022-10-12T15:08:01.554Z,28.70
2022-10-12T15:10:29.797Z,28.90
2022-10-12T15:12:56.674Z,29.10
2022-10-12T15:15:39.869Z,29.50
2022-10-12T15:18:07.265Z,30.00
2022-10-12T15:20:35.771Z,30.00
2022-10-12T15:23:03.245Z,30.40
2022-10-12T15:25:46.031Z,30.60
2022-10-12T15:28:13.088Z,31.10
2022-10-12T15:31:04.246Z,31.10
2022-10-12T15:33:27.390Z,31.50
2022-10-12T15:35:54.458Z,31.90
2022-10-12T15:38:22.367Z,32.20
2022-10-12T15:40:51.026Z,32.50
2022-10-12T15:43:18.065Z,32.80
2022-10-12T15:45:45.102Z,33.10
2022-10-12T15:48:12.069Z,33.60
2022-10-12T15:50:42.973Z,33.80
2022-10-12T15:53:24.674Z,34.40
2022-10-12T15:55:53.051Z,35.20
2022-10-12T15:58:20.377Z,35.00
2022-10-12T16:00:48.359Z,35.40
2022-10-12T16:03:24.553Z,36.40
2022-10-12T16:05:53.016Z,36.10
2022-10-12T16:08:19.865Z,36.40
2022-10-12T16:10:47.738Z,36.90
2022-10-12T16:13:16.021Z,37.20
2022-10-12T16:15:43.630Z,37.60
2022-10-12T16:18:15.306Z,38.00
2022-10-12T16:20:42.789Z,38.30
2022-10-12T16:23:25.919Z,38.60
2022-10-12T16:25:53.553Z,39.20
2022-10-12T16:28:22.075Z,39.50
2022-10-12T16:30:49.955Z,39.90
2022-10-12T16:33:17.992Z,40.10
2022-10-12T16:35:45.235Z,40.50
2022-10-12T16:38:14.458Z,40.90
2022-10-12T16:40:42.918Z,41.20
2022-10-12T16:43:10.145Z,41.50
2022-10-12T16:45:37.000Z,41.90
2022-10-12T16:48:04.153Z,42.30
2022-10-12T16:50:30.966Z,42.70
2022-10-12T16:52:58.247Z,43.00
2022-10-12T16:55:25.368Z,43.50
2022-10-12T16:57:52.316Z,43.70
2022-10-12T17:00:20.355Z,44.10
2022-10-12T17:02:47.961Z,44.50
2022-10-12T17:05:15.094Z,44.90
2022-10-12T17:07:42.173Z,45.20
2022-10-12T17:10:09.655Z,45.60
2022-10-12T17:12:36.523Z,46.10
2022-10-12T17:15:04.426Z,46.50
2022-10-12T17:17:31.240Z,46.70
2022-10-12T17:19:58.180Z,47.00
2022-10-12T17:22:25.269Z,47.30
2022-10-12T17:24:52.148Z,47.60
2022-10-12T17:27:19.247Z,48.50
2022-10-12T17:29:46.926Z,48.30
2022-10-12T17:32:13.990Z,48.70
2022-10-12T17:34:44.426Z,49.00
2022-10-12T17:37:14.925Z,49.50
2022-10-12T17:39:45.778Z,49.80
2022-10-12T17:42:13.377Z,50.20
2022-10-12T17:44:40.749Z,50.50
2022-10-12T17:47:07.917Z,50.80
2022-10-12T17:49:34.892Z,51.30
2022-10-12T17:52:01.931Z,51.70
2022-10-12T17:54:28.792Z,52.10
2022-10-12T17:56:56.180Z,52.50
2022-10-12T17:59:23.476Z,52.80
2022-10-12T18:01:51.974Z,53.20
2022-10-12T18:04:19.691Z,53.50
2022-10-12T18:06:46.930Z,54.00
2022-10-12T18:09:14.464Z,54.20
2022-10-12T18:11:41.777Z,54.70
2022-10-12T18:14:10.447Z,55.00
2022-10-12T18:16:37.916Z,55.80
2022-10-12T18:19:07.021Z,55.60
2022-10-12T18:21:34.422Z,55.90
2022-10-12T18:24:04.592Z,56.10
2022-10-12T18:26:33.301Z,56.50
2022-10-12T18:29:02.028Z,56.70
2022-10-12T18:31:29.770Z,57.00
2022-10-12T18:33:57.859Z,57.30
2022-10-12T18:36:26.478Z,57.60
2022-10-12T18:38:54.043Z,57.80
2022-10-12T18:41:23.171Z,58.10
2022-10-12T18:43:55.376Z,58.40
2022-10-12T18:46:22.448Z,58.60
2022-10-12T18:48:49.608Z,58.80
2022-10-12T18:51:27.045Z,59.00
2022-10-12T18:53:55.113Z,59.40
2022-10-12T18:56:22.653Z,59.50
2022-10-12T18:58:49.881Z,59.70
2022-10-12T19:01:20.754Z,59.80
2022-10-12T19:03:48.657Z,60.20
2022-10-12T19:06:30.866Z,60.30
2022-10-12T19:08:58.706Z,61.10
2022-10-12T19:11:27.369Z,60.80
2022-10-12T19:14:04.691Z,61.10
2022-10-12T19:16:32.987Z,61.30
2022-10-12T19:19:03.937Z,61.50
2022-10-12T19:21:31.273Z,61.70
2022-10-12T19:23:58.237Z,61.90
2022-10-12T19:26:27.548Z,62.10
2022-10-12T19:28:56.865Z,62.50
2022-10-12T19:31:30.691Z,62.70
2022-10-12T19:34:19.193Z,63.10
2022-10-12T19:36:47.114Z,63.80
2022-10-12T19:39:19.265Z,63.20
2022-10-12T19:41:46.897Z,63.50
2022-10-12T19:44:14.546Z,64.00
2022-10-12T19:46:42.840Z,63.80
2022-10-12T19:49:13.797Z,64.10
2022-10-12T19:51:41.182Z,64.40
2022-10-12T19:54:11.800Z,64.40
2022-10-12T19:59:30.425Z,64.80
2022-10-12T20:01:57.232Z,64.80
2022-10-12T20:04:24.243Z,65.00
2022-10-12T20:06:52.005Z,65.30
2022-10-12T20:09:18.835Z,65.50
2022-10-12T20:11:45.814Z,65.60
2022-10-12T20:14:12.665Z,65.80
2022-10-12T20:16:39.511Z,65.90
2022-10-12T20:19:07.249Z,66.10
2022-10-12T20:21:36.472Z,66.30
2022-10-12T20:24:04.106Z,66.50
2022-10-12T20:26:31.242Z,66.60
2022-10-12T20:28:58.105Z,66.80
2022-10-12T20:31:27.639Z,66.90
2022-10-12T20:33:55.886Z,67.10
2022-10-12T20:36:29.901Z,67.10
2022-10-12T20:39:00.305Z,67.30
2022-10-12T20:41:27.959Z,67.60
2022-10-12T20:43:59.933Z,67.60
2022-10-12T20:46:28.408Z,67.90
2022-10-12T20:48:59.672Z,67.80
2022-10-12T20:51:33.979Z,68.00
2022-10-12T20:54:03.016Z,68.30
2022-10-12T20:56:32.516Z,68.20
2022-10-12T20:59:01.271Z,68.50
2022-10-12T21:01:28.807Z,68.70
2022-10-12T21:04:21.188Z,68.70
2022-10-12T21:06:48.301Z,68.80
2022-10-12T21:09:15.482Z,68.90
2022-10-12T21:12:07.474Z,69.10
2022-10-12T21:14:35.437Z,69.10
2022-10-12T21:17:02.367Z,69.40
2022-10-12T21:19:29.480Z,69.40
2022-10-12T21:21:56.395Z,69.60
2022-10-12T21:24:23.301Z,69.70
2022-10-12T21:26:51.755Z,69.80
2022-10-12T21:29:19.375Z,70.00
2022-10-12T21:31:46.133Z,70.00
2022-10-12T21:34:13.097Z,70.00
2022-10-12T21:36:40.299Z,70.20
2022-10-12T21:39:13.687Z,70.30
2022-10-12T21:41:41.569Z,70.60
2022-10-12T21:44:10.127Z,70.50
2022-10-12T21:46:37.626Z,70.60
2022-10-12T21:49:08.120Z,70.70
2022-10-12T21:51:36.688Z,70.80
2022-10-12T21:54:05.855Z,70.80
2022-10-12T21:56:35.981Z,71.10
2022-10-12T21:59:05.256Z,71.10
2022-10-12T22:01:36.807Z,71.10
2022-10-12T22:04:12.868Z,71.30
2022-10-12T22:06:40.701Z,71.50
2022-10-12T22:09:12.608Z,71.80
2022-10-12T22:11:39.878Z,71.10
2022-10-12T22:14:15.002Z,71.10
2022-10-12T22:16:45.720Z,71.30
2022-10-12T22:19:18.699Z,71.40
2022-10-12T22:21:48.297Z,71.70
2022-10-12T22:24:15.885Z,71.80
2022-10-12T22:26:43.075Z,71.80
2022-10-12T22:29:10.518Z,72.10
2022-10-12T22:31:40.486Z,72.10
2022-10-12T22:34:08.338Z,72.30
2022-10-12T22:36:36.208Z,72.40
2022-10-12T22:39:04.163Z,72.50
2022-10-12T22:41:31.776Z,72.50
2022-10-12T22:43:58.651Z,72.70
2022-10-12T22:46:26.326Z,72.80
2022-10-12T22:48:54.495Z,72.90
2022-10-12T22:51:32.181Z,72.90
2022-10-12T22:54:00.257Z,73.20
2022-10-12T22:56:27.716Z,73.00
2022-10-12T22:58:57.142Z,73.10
2022-10-12T23:01:25.505Z,73.20
2022-10-12T23:03:54.025Z,73.20
2022-10-12T23:06:21.649Z,73.30
2022-10-12T23:08:48.604Z,73.30
2022-10-12T23:11:22.906Z,73.30
2022-10-12T23:13:50.353Z,73.50
2022-10-12T23:16:29.715Z,74.40
2022-10-12T23:19:03.295Z,73.60
2022-10-12T23:21:33.050Z,73.50
2022-10-12T23:24:01.695Z,73.60
2022-10-12T23:26:30.156Z,73.70
2022-10-12T23:28:57.195Z,73.80
2022-10-12T23:31:29.992Z,73.80
2022-10-12T23:34:04.292Z,74.00
2022-10-12T23:36:31.576Z,73.90
2022-10-12T23:39:03.363Z,74.10
2022-10-12T23:41:30.894Z,74.20
2022-10-12T23:43:58.117Z,74.30
2022-10-12T23:46:25.428Z,74.30
2022-10-12T23:48:53.934Z,74.40
2022-10-12T23:51:20.947Z,74.40
2022-10-12T23:53:48.334Z,74.40
2022-10-12T23:56:15.219Z,74.40
2022-10-12T23:58:42.147Z,74.50
